Time;durP1;ratioP1;P1;durP2;ratioP2;P2;SDS_P1;SDS_P2;PMS_P1;PMS_P2;Temp;Humidity;BMP_temperature;BMP_pressure;BME280_temperature;BME280_humidity;BME280_pressure;Samples;Min_cycle;Max_cycle;Signal;HPM_P1;HPM_P2
2022/09/13 03:01:21;;;;;;;;;;;23.60;46.40;;;;;;5482887;23;45885;-65
2022/09/13 03:03:46;;;;;;;;;;;23.60;46.40;;;;;;4916352;28;45050;-64
2022/09/13 03:06:12;;;;;;;;;;;23.60;46.40;;;;;;4895329;28;45304;-64
2022/09/13 03:08:37;;;;;;;;;;;23.60;46.40;;;;;;4897727;28;45173;-65
2022/09/13 03:11:14;;;;;;;;;;;23.60;46.40;;;;;;4892400;28;45664;-63
2022/09/13 03:13:40;;;;;;;;;;;23.60;46.40;;;;;;4884695;28;45257;-63
2022/09/13 03:16:05;;;;;;;;;;;23.60;46.40;;;;;;4895472;28;44882;-64
2022/09/13 03:18:47;;;;;;;;;;;23.60;46.40;;;;;;4900588;28;45526;-64
2022/09/13 03:21:18;;;;;;;;;;;23.60;46.50;;;;;;4879937;28;46341;-63
2022/09/13 03:24:03;;;;;;;;;;;23.60;46.40;;;;;;4894843;28;44732;-66
2022/09/13 03:26:52;;;;;;;;;;;23.60;46.40;;;;;;4899910;28;45403;-64
2022/09/13 03:29:30;;;;;;;;;;;23.60;46.40;;;;;;4896476;28;45583;-64
2022/09/13 03:32:01;;;;;;;;;;;23.60;46.40;;;;;;4864374;28;46149;-64
2022/09/13 03:34:36;;;;;;;;;;;23.60;46.40;;;;;;4865062;28;45240;-63
2022/09/13 03:37:07;;;;;;;;;;;23.60;47.10;;;;;;4881313;28;45301;-66
2022/09/13 03:39:38;;;;;;;;;;;23.60;46.50;;;;;;4885089;28;44720;-64
2022/09/13 03:42:07;;;;;;;;;;;23.60;46.50;;;;;;4891907;28;46194;-64
2022/09/13 03:44:32;;;;;;;;;;;23.60;46.40;;;;;;4884871;28;45401;-64
2022/09/13 03:46:58;;;;;;;;;;;23.50;46.40;;;;;;4882768;28;45085;-64
2022/09/13 03:49:24;;;;;;;;;;;23.50;46.40;;;;;;4899455;28;45263;-65
2022/09/13 03:51:50;;;;;;;;;;;23.50;46.40;;;;;;4901922;28;46161;-64
2022/09/13 03:54:17;;;;;;;;;;;23.50;46.40;;;;;;4900616;28;45558;-66
2022/09/13 03:56:42;;;;;;;;;;;23.50;46.40;;;;;;4869200;28;44867;-64
2022/09/13 03:59:08;;;;;;;;;;;23.50;46.40;;;;;;4904605;28;45588;-64
2022/09/13 04:01:33;;;;;;;;;;;23.50;46.30;;;;;;4893922;28;45441;-64
2022/09/13 04:03:59;;;;;;;;;;;23.50;46.40;;;;;;4893382;28;45497;-66
2022/09/13 04:06:24;;;;;;;;;;;23.50;46.30;;;;;;4904032;28;45417;-64
2022/09/13 04:08:50;;;;;;;;;;;23.50;46.40;;;;;;4904143;28;45436;-65
2022/09/13 04:11:15;;;;;;;;;;;23.50;46.40;;;;;;4895970;28;45480;-64
2022/09/13 04:13:41;;;;;;;;;;;23.50;46.40;;;;;;4884929;28;45466;-64
2022/09/13 04:16:06;;;;;;;;;;;23.50;46.40;;;;;;4899148;28;44683;-64
2022/09/13 04:18:32;;;;;;;;;;;23.50;46.40;;;;;;4909346;28;44898;-63
2022/09/13 04:20:58;;;;;;;;;;;23.50;46.40;;;;;;4896823;28;46145;-64
2022/09/13 04:23:24;;;;;;;;;;;23.50;46.40;;;;;;4880802;28;45251;-65
2022/09/13 04:25:52;;;;;;;;;;;23.50;46.40;;;;;;4881244;29;45311;-64
2022/09/13 04:28:18;;;;;;;;;;;23.50;46.40;;;;;;4903054;28;45151;-64
2022/09/13 04:30:44;;;;;;;;;;;23.50;46.40;;;;;;4901015;28;47374;-65
2022/09/13 04:33:09;;;;;;;;;;;23.50;46.40;;;;;;4879819;28;44690;-65
2022/09/13 04:35:35;;;;;;;;;;;23.40;46.30;;;;;;4889551;28;44916;-64
2022/09/13 04:38:00;;;;;;;;;;;23.50;46.40;;;;;;4905140;28;45098;-64
2022/09/13 04:40:26;;;;;;;;;;;23.50;46.40;;;;;;4901095;28;45822;-64
2022/09/13 04:42:51;;;;;;;;;;;23.40;46.40;;;;;;4904698;28;45272;-64
2022/09/13 04:45:17;;;;;;;;;;;23.40;46.40;;;;;;4897253;28;44974;-64
2022/09/13 04:47:42;;;;;;;;;;;23.40;46.40;;;;;;4899035;28;45452;-64
2022/09/13 04:50:08;;;;;;;;;;;23.40;46.40;;;;;;4906013;28;45413;-65
2022/09/13 04:52:34;;;;;;;;;;;23.40;46.40;;;;;;4899959;28;45304;-65
2022/09/13 04:55:00;;;;;;;;;;;23.40;46.30;;;;;;4902484;28;45486;-65
2022/09/13 04:57:26;;;;;;;;;;;23.40;46.40;;;;;;4904815;28;45398;-63
2022/09/13 04:59:52;;;;;;;;;;;23.40;46.60;;;;;;4906479;28;45347;-64
2022/09/13 05:02:17;;;;;;;;;;;23.40;46.40;;;;;;4904042;28;45174;-66
2022/09/13 05:04:43;;;;;;;;;;;23.40;46.40;;;;;;4901206;28;45010;-64
2022/09/13 05:07:08;;;;;;;;;;;23.40;46.40;;;;;;4902924;28;45485;-64
2022/09/13 05:09:34;;;;;;;;;;;23.40;46.40;;;;;;4907153;28;46178;-65
2022/09/13 05:11:59;;;;;;;;;;;23.40;46.70;;;;;;4903095;28;45599;-64
2022/09/13 05:14:25;;;;;;;;;;;23.40;46.40;;;;;;4901126;28;45577;-64
2022/09/13 05:16:50;;;;;;;;;;;23.40;46.40;;;;;;4905284;28;45179;-64
2022/09/13 05:19:16;;;;;;;;;;;23.40;46.40;;;;;;4903168;28;45451;-64
2022/09/13 05:21:41;;;;;;;;;;;23.40;46.40;;;;;;4902025;28;45432;-64
2022/09/13 05:24:07;;;;;;;;;;;23.40;46.40;;;;;;4903117;28;45280;-64
2022/09/13 05:26:32;;;;;;;;;;;23.40;46.40;;;;;;4898982;28;45179;-64
2022/09/13 05:28:58;;;;;;;;;;;23.40;46.40;;;;;;4903810;28;46188;-64
2022/09/13 05:31:30;;;;;;;;;;;23.40;46.40;;;;;;4902446;28;44961;-64
2022/09/13 05:33:57;;;;;;;;;;;23.40;46.40;;;;;;4900895;28;44988;-64
2022/09/13 05:36:23;;;;;;;;;;;23.40;46.40;;;;;;4903758;28;45347;-65
2022/09/13 05:38:48;;;;;;;;;;;23.40;46.40;;;;;;4902560;28;47230;-65
2022/09/13 05:41:14;;;;;;;;;;;23.40;46.40;;;;;;4901541;28;44985;-64
2022/09/13 05:43:39;;;;;;;;;;;23.40;46.40;;;;;;4902982;28;45600;-65
2022/09/13 05:46:05;;;;;;;;;;;23.40;46.30;;;;;;4904522;28;45802;-63
2022/09/13 05:48:30;;;;;;;;;;;23.40;46.30;;;;;;4902802;28;45187;-63
2022/09/13 05:50:56;;;;;;;;;;;23.50;46.20;;;;;;4899794;28;44754;-64
2022/09/13 05:53:21;;;;;;;;;;;23.50;46.80;;;;;;4884772;28;44725;-64
2022/09/13 05:55:47;;;;;;;;;;;23.60;46.20;;;;;;4901087;28;44674;-64
2022/09/13 05:58:12;;;;;;;;;;;23.60;46.20;;;;;;4895977;28;46165;-64
2022/09/13 06:00:38;;;;;;;;;;;23.60;46.20;;;;;;4881754;29;45391;-64
2022/09/13 06:03:03;;;;;;;;;;;23.60;46.20;;;;;;4882427;29;45294;-63
2022/09/13 06:05:29;;;;;;;;;;;23.60;46.20;;;;;;4879677;29;45463;-64
2022/09/13 06:07:54;;;;;;;;;;;23.60;46.30;;;;;;4880932;29;47046;-63
2022/09/13 06:10:20;;;;;;;;;;;23.50;46.30;;;;;;4884751;29;45213;-63
2022/09/13 06:12:46;;;;;;;;;;;23.50;46.40;;;;;;4872372;29;45556;-67
2022/09/13 06:15:11;;;;;;;;;;;23.50;46.40;;;;;;4876057;29;45247;-65
2022/09/13 06:17:37;;;;;;;;;;;23.50;46.50;;;;;;4877631;29;46170;-63
2022/09/13 06:20:03;;;;;;;;;;;23.40;47.10;;;;;;4875365;29;45517;-66
2022/09/13 06:22:32;;;;;;;;;;;23.40;46.50;;;;;;4874351;29;45197;-64
2022/09/13 06:25:00;;;;;;;;;;;23.40;46.60;;;;;;4877311;29;45669;-65
2022/09/13 06:27:26;;;;;;;;;;;23.40;46.70;;;;;;4880125;29;45205;-64
2022/09/13 06:29:51;;;;;;;;;;;23.40;46.70;;;;;;4854166;29;45593;-66
2022/09/13 06:32:16;;;;;;;;;;;23.40;46.80;;;;;;4880207;29;45504;-66
2022/09/13 06:34:42;;;;;;;;;;;23.40;46.70;;;;;;4876071;29;45672;-69
2022/09/13 06:37:07;;;;;;;;;;;23.50;46.70;;;;;;4886474;29;45900;-68
2022/09/13 06:39:33;;;;;;;;;;;23.50;46.60;;;;;;4859861;29;44900;-66
2022/09/13 06:41:59;;;;;;;;;;;23.50;46.60;;;;;;4882794;29;45053;-68
2022/09/13 06:44:24;;;;;;;;;;;23.60;46.60;;;;;;4879099;29;45370;-68
2022/09/13 06:46:49;;;;;;;;;;;23.60;46.60;;;;;;4881549;29;45435;-67
2022/09/13 06:49:15;;;;;;;;;;;23.60;46.60;;;;;;4885299;29;45013;-64
2022/09/13 06:51:40;;;;;;;;;;;23.60;47.20;;;;;;4881186;29;45535;-66
2022/09/13 06:54:06;;;;;;;;;;;23.60;46.50;;;;;;4878372;29;46148;-66
2022/09/13 06:56:32;;;;;;;;;;;23.70;46.40;;;;;;4879408;29;46345;-69
2022/09/13 06:58:58;;;;;;;;;;;23.70;46.40;;;;;;4881496;29;45490;-67
2022/09/13 07:01:25;;;;;;;;;;;23.80;46.40;;;;;;4889985;28;46111;-67
2022/09/13 07:03:51;;;;;;;;;;;23.80;46.30;;;;;;4902220;28;45254;-66
2022/09/13 07:06:21;;;;;;;;;;;23.80;46.30;;;;;;4886307;29;46078;-68
2022/09/13 07:08:47;;;;;;;;;;;23.80;46.20;;;;;;4877932;29;45477;-65
2022/09/13 07:11:13;;;;;;;;;;;23.80;46.10;;;;;;4901184;28;45302;-67
2022/09/13 07:13:38;;;;;;;;;;;23.80;46.20;;;;;;4879667;28;45538;-65
2022/09/13 07:16:04;;;;;;;;;;;23.80;46.20;;;;;;4900092;28;45998;-68
2022/09/13 07:18:30;;;;;;;;;;;23.80;46.30;;;;;;4884645;28;45168;-66
2022/09/13 07:21:02;;;;;;;;;;;23.90;46.20;;;;;;4898166;28;46110;-66
2022/09/13 07:23:28;;;;;;;;;;;23.90;46.10;;;;;;4859257;28;45369;-67
2022/09/13 07:25:54;;;;;;;;;;;23.90;46.10;;;;;;4880517;28;46259;-67
2022/09/13 07:28:20;;;;;;;;;;;23.90;46.10;;;;;;4897211;28;45606;-66
2022/09/13 07:30:45;;;;;;;;;;;24.00;46.10;;;;;;4898342;28;45869;-66
2022/09/13 07:33:11;;;;;;;;;;;23.90;46.10;;;;;;4898938;28;44814;-65
2022/09/13 07:35:37;;;;;;;;;;;24.00;46.00;;;;;;4900155;28;45060;-66
2022/09/13 07:38:02;;;;;;;;;;;24.00;46.00;;;;;;4899474;28;45212;-68
2022/09/13 07:40:28;;;;;;;;;;;24.10;45.90;;;;;;4899001;28;45493;-68
2022/09/13 07:42:53;;;;;;;;;;;24.10;45.90;;;;;;4899996;28;45294;-66
2022/09/13 07:45:20;;;;;;;;;;;24.10;45.80;;;;;;4897711;28;46061;-66
2022/09/13 07:47:45;;;;;;;;;;;24.20;45.80;;;;;;4896434;28;45599;-67
2022/09/13 07:50:11;;;;;;;;;;;24.20;45.80;;;;;;4881823;29;45610;-66
2022/09/13 07:52:36;;;;;;;;;;;24.20;45.70;;;;;;4880244;28;45390;-64
2022/09/13 07:55:02;;;;;;;;;;;24.20;45.70;;;;;;4885490;28;46142;-67
2022/09/13 07:57:28;;;;;;;;;;;24.30;45.70;;;;;;4902879;28;45586;-69
2022/09/13 07:59:54;;;;;;;;;;;24.30;45.70;;;;;;4900699;28;45530;-65
2022/09/13 08:02:19;;;;;;;;;;;24.30;46.30;;;;;;4906721;28;45270;-68
2022/09/13 08:04:45;;;;;;;;;;;24.30;45.60;;;;;;4902743;28;46200;-68
2022/09/13 08:07:10;;;;;;;;;;;24.30;45.60;;;;;;4901883;28;45257;-69
2022/09/13 08:09:36;;;;;;;;;;;24.40;45.60;;;;;;4917176;28;45206;-71
2022/09/13 08:12:01;;;;;;;;;;;24.40;45.60;;;;;;4900709;28;45198;-66
2022/09/13 08:14:27;;;;;;;;;;;24.40;45.60;;;;;;4900249;28;46064;-67
2022/09/13 08:16:55;;;;;;;;;;;24.40;45.60;;;;;;4902865;28;45347;-68
2022/09/13 08:19:21;;;;;;;;;;;24.40;45.60;;;;;;4905393;28;45398;-71
2022/09/13 08:21:46;;;;;;;;;;;24.50;45.50;;;;;;4904749;28;45019;-68
2022/09/13 08:24:13;;;;;;;;;;;24.50;45.50;;;;;;4899348;28;48010;-68
2022/09/13 08:26:38;;;;;;;;;;;24.50;45.40;;;;;;4900437;28;45107;-65
2022/09/13 08:29:04;;;;;;;;;;;24.50;45.30;;;;;;4897285;28;45599;-68
2022/09/13 08:31:30;;;;;;;;;;;24.60;45.40;;;;;;4900934;28;45395;-68
2022/09/13 08:33:55;;;;;;;;;;;24.60;45.50;;;;;;4899806;28;46272;-67
2022/09/13 08:36:22;;;;;;;;;;;24.60;45.40;;;;;;4904717;28;45515;-68
2022/09/13 08:38:49;;;;;;;;;;;24.60;45.40;;;;;;4902399;28;45168;-71
2022/09/13 08:41:38;;;;;;;;;;;24.60;45.50;;;;;;4899699;28;45483;-68
2022/09/13 08:44:13;;;;;;;;;;;24.60;45.40;;;;;;4896522;28;46753;-67
2022/09/13 08:46:40;;;;;;;;;;;24.60;45.40;;;;;;4898968;28;45365;-67
2022/09/13 08:49:06;;;;;;;;;;;24.70;45.40;;;;;;4898462;28;45262;-64
2022/09/13 08:51:41;;;;;;;;;;;24.70;45.30;;;;;;4900043;28;45468;-65
2022/09/13 08:54:09;;;;;;;;;;;24.70;45.30;;;;;;4899312;28;46211;-71
2022/09/13 08:56:55;;;;;;;;;;;24.70;45.20;;;;;;4900820;28;45210;-67
2022/09/13 08:59:20;;;;;;;;;;;24.80;45.30;;;;;;4888665;28;45689;-63
2022/09/13 09:01:46;;;;;;;;;;;24.80;45.30;;;;;;4899366;28;45815;-67
2022/09/13 09:04:23;;;;;;;;;;;24.80;45.30;;;;;;4901358;28;46386;-67
2022/09/13 09:06:49;;;;;;;;;;;24.80;45.20;;;;;;4900826;28;46192;-66
2022/09/13 09:09:15;;;;;;;;;;;24.80;45.20;;;;;;4884605;28;45065;-65
2022/09/13 09:11:47;;;;;;;;;;;24.80;45.20;;;;;;4900487;28;45214;-66
2022/09/13 09:14:32;;;;;;;;;;;24.80;45.20;;;;;;4902124;28;46073;-65
2022/09/13 09:16:59;;;;;;;;;;;24.80;45.20;;;;;;4883302;28;44668;-67
2022/09/13 09:19:33;;;;;;;;;;;24.80;45.20;;;;;;4884066;28;45012;-68
2022/09/13 09:21:58;;;;;;;;;;;24.80;45.30;;;;;;4900687;28;45457;-67
2022/09/13 09:24:24;;;;;;;;;;;24.90;45.20;;;;;;4887069;28;45412;-67
2022/09/13 09:26:51;;;;;;;;;;;24.80;45.20;;;;;;4883885;29;45308;-69
2022/09/13 09:29:18;;;;;;;;;;;24.90;45.30;;;;;;4880506;28;45486;-71
2022/09/13 09:31:59;;;;;;;;;;;24.80;45.20;;;;;;4880064;28;46452;-67
2022/09/13 09:34:43;;;;;;;;;;;24.80;45.20;;;;;;4893700;28;46048;-69
2022/09/13 09:37:21;;;;;;;;;;;24.90;45.20;;;;;;4901270;28;45373;-65
2022/09/13 09:39:47;;;;;;;;;;;24.80;45.30;;;;;;4907857;28;45532;-65
2022/09/13 09:42:14;;;;;;;;;;;24.80;45.30;;;;;;4897623;28;45460;-69
2022/09/13 09:44:40;;;;;;;;;;;24.90;45.30;;;;;;4899226;28;45710;-68
2022/09/13 09:47:16;;;;;;;;;;;24.90;45.30;;;;;;4895479;28;45045;-69
2022/09/13 09:52:28;;;;;;;;;;;24.90;45.30;;;;;;4913387;28;45469;-66
2022/09/13 09:54:56;;;;;;;;;;;24.90;45.20;;;;;;4881883;29;46806;-66
2022/09/13 09:57:33;;;;;;;;;;;24.90;45.30;;;;;;4882862;28;45430;-67
2022/09/13 10:00:09;;;;;;;;;;;24.90;45.30;;;;;;4867918;28;45239;-66
2022/09/13 10:02:34;;;;;;;;;;;24.90;45.30;;;;;;4896722;28;45583;-69
2022/09/13 10:05:00;;;;;;;;;;;24.90;45.30;;;;;;4901153;28;45462;-68
2022/09/13 10:07:34;;;;;;;;;;;24.90;45.30;;;;;;4905098;28;46197;-67
2022/09/13 10:10:41;;;;;;;;;;;24.90;45.20;;;;;;4898941;28;45428;-66
2022/09/13 10:13:11;;;;;;;;;;;25.00;45.30;;;;;;4825363;29;45581;-68
2022/09/13 10:15:36;;;;;;;;;;;24.90;45.20;;;;;;4841990;29;45452;-66
2022/09/13 10:18:22;;;;;;;;;;;25.00;45.30;;;;;;4861692;28;45621;-65
2022/09/13 10:21:00;;;;;;;;;;;25.00;45.30;;;;;;4903315;28;45476;-66
2022/09/13 10:23:26;;;;;;;;;;;25.00;45.30;;;;;;4893051;28;45207;-65
2022/09/13 10:26:04;;;;;;;;;;;25.00;45.20;;;;;;4900528;28;45547;-67
2022/09/13 10:28:31;;;;;;;;;;;25.00;45.20;;;;;;4896790;28;45803;-67
2022/09/13 10:30:59;;;;;;;;;;;25.00;45.30;;;;;;4896794;28;45329;-70
2022/09/13 10:33:43;;;;;;;;;;;25.00;45.30;;;;;;4900616;28;45418;-68
2022/09/13 10:36:23;;;;;;;;;;;25.00;45.30;;;;;;4889442;28;46197;-64
2022/09/13 10:38:58;;;;;;;;;;;25.00;45.30;;;;;;4902476;28;45222;-70
2022/09/13 10:41:25;;;;;;;;;;;25.00;45.30;;;;;;4900451;28;45341;-67
2022/09/13 10:43:57;;;;;;;;;;;25.00;45.30;;;;;;4905613;28;45520;-64
2022/09/13 10:46:23;;;;;;;;;;;25.00;45.40;;;;;;4896409;28;46411;-71
2022/09/13 10:48:58;;;;;;;;;;;25.00;45.40;;;;;;4899060;28;45261;-64
2022/09/13 10:51:26;;;;;;;;;;;25.00;45.40;;;;;;4902683;28;45004;-66
2022/09/13 10:54:06;;;;;;;;;;;25.00;45.40;;;;;;4903500;28;45296;-66
2022/09/13 10:56:32;;;;;;;;;;;25.00;45.30;;;;;;4909189;28;45439;-66
2022/09/13 10:59:16;;;;;;;;;;;25.00;45.30;;;;;;4905320;28;45165;-67
2022/09/13 11:01:57;;;;;;;;;;;25.00;45.30;;;;;;4902527;28;44777;-67
2022/09/13 11:04:42;;;;;;;;;;;25.00;45.40;;;;;;4901936;28;45945;-68
2022/09/13 11:07:15;;;;;;;;;;;25.00;45.30;;;;;;4903613;28;45956;-68
2022/09/13 11:10:01;;;;;;;;;;;25.00;45.30;;;;;;4885215;28;45076;-66
2022/09/13 11:12:32;;;;;;;;;;;25.00;45.30;;;;;;4884507;28;45344;-70
2022/09/13 11:15:17;;;;;;;;;;;25.00;45.30;;;;;;4904934;28;45221;-67
2022/09/13 11:17:46;;;;;;;;;;;25.00;45.30;;;;;;4904003;28;46199;-68
2022/09/13 11:20:30;;;;;;;;;;;25.00;45.30;;;;;;4906949;28;45527;-67
2022/09/13 11:23:04;;;;;;;;;;;25.00;45.30;;;;;;4912006;28;45447;-65
2022/09/13 11:25:36;;;;;;;;;;;25.00;45.30;;;;;;4893212;28;45647;-65
2022/09/13 11:28:14;;;;;;;;;;;25.00;45.30;;;;;;4896441;28;46338;-71
2022/09/13 11:30:54;;;;;;;;;;;25.00;45.30;;;;;;4893165;28;45420;-73
2022/09/13 11:33:32;;;;;;;;;;;25.00;45.30;;;;;;4889604;28;46087;-67
2022/09/13 11:36:21;;;;;;;;;;;25.00;45.30;;;;;;4882233;28;45375;-67
2022/09/13 11:38:54;;;;;;;;;;;25.00;45.30;;;;;;4898263;28;46003;-67
2022/09/13 11:41:36;;;;;;;;;;;25.00;45.40;;;;;;4898384;28;44933;-78
2022/09/13 11:44:04;;;;;;;;;;;25.00;45.30;;;;;;4877707;28;45013;-71
2022/09/13 11:46:39;;;;;;;;;;;25.00;45.40;;;;;;4898190;28;45154;-66
2022/09/13 11:49:04;;;;;;;;;;;25.00;45.30;;;;;;4899103;28;46689;-68
2022/09/13 11:51:30;;;;;;;;;;;25.10;45.50;;;;;;4895973;28;45279;-68
2022/09/13 11:54:15;;;;;;;;;;;25.00;45.40;;;;;;4898765;28;45569;-63
2022/09/13 11:56:41;;;;;;;;;;;25.10;45.50;;;;;;4902308;28;45339;-69
2022/09/13 11:59:26;;;;;;;;;;;25.10;45.40;;;;;;4881391;28;46057;-67
2022/09/13 12:01:56;;;;;;;;;;;25.10;45.50;;;;;;4898877;28;45423;-63
2022/09/13 12:04:23;;;;;;;;;;;25.10;45.40;;;;;;4866613;28;45458;-70
2022/09/13 12:06:52;;;;;;;;;;;25.10;45.40;;;;;;4880281;28;45670;-65
2022/09/13 12:09:22;;;;;;;;;;;25.10;45.40;;;;;;4878711;28;46458;-68
2022/09/13 12:11:50;;;;;;;;;;;25.10;45.40;;;;;;4886512;28;45507;-67
2022/09/13 12:14:16;;;;;;;;;;;25.10;45.40;;;;;;4884179;28;45416;-68
2022/09/13 12:16:43;;;;;;;;;;;25.20;45.40;;;;;;4883226;28;45418;-68
2022/09/13 12:19:16;;;;;;;;;;;25.20;45.40;;;;;;4882578;28;45223;-67
2022/09/13 12:21:43;;;;;;;;;;;25.20;45.40;;;;;;4882589;28;45202;-72
2022/09/13 12:24:31;;;;;;;;;;;25.20;45.40;;;;;;4876197;29;45200;-63
2022/09/13 12:26:58;;;;;;;;;;;25.20;45.40;;;;;;4862243;28;45015;-66
2022/09/13 12:29:28;;;;;;;;;;;25.20;45.40;;;;;;4876770;28;45515;-68
2022/09/13 12:31:55;;;;;;;;;;;25.20;45.50;;;;;;4878402;29;45562;-64
2022/09/13 12:34:26;;;;;;;;;;;25.20;45.50;;;;;;4867893;28;45308;-70
2022/09/13 12:37:01;;;;;;;;;;;25.20;45.50;;;;;;4880971;28;45084;-64
2022/09/13 12:39:35;;;;;;;;;;;25.10;45.40;;;;;;4897901;28;45637;-65
2022/09/13 12:42:17;;;;;;;;;;;25.20;45.50;;;;;;4886235;28;45220;-77
2022/09/13 12:44:42;;;;;;;;;;;25.20;45.50;;;;;;4897825;28;45282;-67
2022/09/13 12:47:07;;;;;;;;;;;25.20;45.50;;;;;;4899448;28;44796;-67
2022/09/13 12:49:42;;;;;;;;;;;25.10;45.50;;;;;;4897053;28;48138;-69
2022/09/13 12:52:16;;;;;;;;;;;25.10;45.50;;;;;;4900671;28;45310;-67
2022/09/13 12:55:00;;;;;;;;;;;25.20;45.60;;;;;;4884235;28;45257;-69
2022/09/13 12:57:29;;;;;;;;;;;25.20;45.60;;;;;;4904738;28;45346;-64
2022/09/13 12:59:57;;;;;;;;;;;25.20;45.60;;;;;;4905320;28;47056;-66
2022/09/13 13:02:27;;;;;;;;;;;25.20;45.60;;;;;;4902351;28;45334;-67
2022/09/13 13:04:54;;;;;;;;;;;25.20;45.70;;;;;;4868119;29;45340;-66
2022/09/13 13:07:21;;;;;;;;;;;25.20;45.70;;;;;;4890964;28;46353;-68
2022/09/13 13:09:47;;;;;;;;;;;25.20;45.70;;;;;;4888785;28;45522;-65
2022/09/13 13:12:42;;;;;;;;;;;25.20;45.70;;;;;;4883882;28;45263;-65
2022/09/13 13:15:11;;;;;;;;;;;25.20;45.70;;;;;;4894793;28;44651;-65
2022/09/13 13:17:36;;;;;;;;;;;25.20;46.30;;;;;;4897236;28;45384;-64
2022/09/13 13:20:28;;;;;;;;;;;25.20;45.70;;;;;;4883933;28;47156;-68
2022/09/13 13:23:01;;;;;;;;;;;25.20;45.70;;;;;;4869579;28;45191;-66
2022/09/13 13:25:29;;;;;;;;;;;25.20;45.70;;;;;;4883856;28;45148;-64
2022/09/13 13:27:55;;;;;;;;;;;25.20;45.70;;;;;;4894704;28;45383;-64
2022/09/13 13:30:33;;;;;;;;;;;25.20;45.80;;;;;;4886015;28;46075;-68
2022/09/13 13:33:05;;;;;;;;;;;25.20;45.80;;;;;;4904386;28;45371;-63
2022/09/13 13:35:33;;;;;;;;;;;25.20;45.80;;;;;;4870152;28;44789;-64
2022/09/13 13:38:13;;;;;;;;;;;25.20;45.90;;;;;;4902097;28;45549;-63
2022/09/13 13:40:38;;;;;;;;;;;25.20;45.80;;;;;;4902655;28;45979;-64
2022/09/13 13:43:22;;;;;;;;;;;25.20;45.90;;;;;;4901891;28;45350;-65
2022/09/13 13:46:06;;;;;;;;;;;25.20;45.90;;;;;;4895279;28;44664;-64
2022/09/13 13:48:33;;;;;;;;;;;25.20;45.90;;;;;;4903505;28;45566;-65
2022/09/13 13:51:18;;;;;;;;;;;25.20;46.00;;;;;;4880976;28;45635;-66
2022/09/13 13:53:48;;;;;;;;;;;25.20;45.90;;;;;;4882322;28;45278;-63
2022/09/13 13:56:25;;;;;;;;;;;25.20;46.00;;;;;;4871086;28;45334;-64
2022/09/13 13:58:55;;;;;;;;;;;25.20;46.00;;;;;;4880726;28;45368;-64
2022/09/13 14:01:25;;;;;;;;;;;25.20;46.00;;;;;;4902204;28;45300;-71
2022/09/13 14:03:57;;;;;;;;;;;25.20;46.00;;;;;;4885418;28;45348;-66
2022/09/13 14:06:41;;;;;;;;;;;25.20;46.00;;;;;;4899939;28;45162;-66
2022/09/13 14:09:16;;;;;;;;;;;25.20;46.00;;;;;;4897000;28;44794;-66
2022/09/13 14:12:00;;;;;;;;;;;25.20;46.00;;;;;;4901949;28;46141;-66
2022/09/13 14:14:32;;;;;;;;;;;25.20;46.00;;;;;;4888021;28;45428;-65
2022/09/13 14:17:16;;;;;;;;;;;25.20;46.00;;;;;;4865223;29;45223;-63
2022/09/13 14:19:45;;;;;;;;;;;25.20;46.00;;;;;;4903742;28;45257;-63
2022/09/13 14:22:18;;;;;;;;;;;25.20;46.10;;;;;;4903677;28;45171;-63
2022/09/13 14:24:45;;;;;;;;;;;25.20;46.10;;;;;;4885635;28;45255;-64
2022/09/13 14:27:23;;;;;;;;;;;25.20;46.00;;;;;;4900567;28;45132;-63
2022/09/13 14:29:53;;;;;;;;;;;25.20;46.10;;;;;;4906207;28;45545;-62
2022/09/13 14:32:19;;;;;;;;;;;25.20;46.00;;;;;;4891253;28;45084;-63
2022/09/13 14:34:52;;;;;;;;;;;25.20;46.00;;;;;;4888668;28;44985;-65
2022/09/13 14:37:18;;;;;;;;;;;25.30;46.10;;;;;;4893912;28;45256;-65
2022/09/13 14:39:57;;;;;;;;;;;25.20;46.00;;;;;;4882753;28;44760;-64
2022/09/13 14:42:22;;;;;;;;;;;25.30;46.70;;;;;;4878081;28;46266;-65
2022/09/13 14:44:48;;;;;;;;;;;25.30;46.10;;;;;;4897795;28;44758;-64
2022/09/13 14:47:16;;;;;;;;;;;25.30;46.10;;;;;;4873070;28;44642;-65
2022/09/13 14:49:43;;;;;;;;;;;25.20;46.00;;;;;;4894823;28;46602;-63
2022/09/13 14:52:13;;;;;;;;;;;25.30;46.30;;;;;;4885622;28;45497;-66
2022/09/13 14:54:40;;;;;;;;;;;25.30;46.30;;;;;;4889754;28;45190;-64
2022/09/13 14:57:08;;;;;;;;;;;25.20;46.20;;;;;;4887299;28;45161;-66
2022/09/13 14:59:35;;;;;;;;;;;25.20;46.20;;;;;;4881610;28;45454;-63
2022/09/13 15:02:05;;;;;;;;;;;25.20;46.20;;;;;;4893733;28;45199;-63
2022/09/13 15:04:30;;;;;;;;;;;25.20;46.20;;;;;;4900965;28;45157;-64
2022/09/13 15:07:07;;;;;;;;;;;25.20;46.30;;;;;;4918584;28;45504;-64
2022/09/13 15:09:33;;;;;;;;;;;25.20;46.30;;;;;;4896599;28;44678;-66
2022/09/13 15:12:00;;;;;;;;;;;25.20;46.30;;;;;;4896407;28;46269;-65
2022/09/13 15:14:30;;;;;;;;;;;25.10;46.30;;;;;;4902492;28;45198;-64
2022/09/13 15:17:08;;;;;;;;;;;25.10;46.50;;;;;;4902370;28;45236;-66
2022/09/13 15:19:35;;;;;;;;;;;25.10;46.30;;;;;;4898674;28;45669;-65
2022/09/13 15:22:04;;;;;;;;;;;25.10;46.40;;;;;;4896713;28;47298;-66
2022/09/13 15:24:30;;;;;;;;;;;25.10;46.30;;;;;;4901063;28;45407;-64
2022/09/13 15:27:06;;;;;;;;;;;25.10;46.30;;;;;;4895288;28;45277;-66
2022/09/13 15:29:36;;;;;;;;;;;25.10;46.40;;;;;;4892165;28;44762;-65
2022/09/13 15:32:02;;;;;;;;;;;25.10;46.40;;;;;;4892263;28;47031;-65
2022/09/13 15:34:27;;;;;;;;;;;25.00;46.40;;;;;;4899712;28;45275;-66
2022/09/13 15:37:11;;;;;;;;;;;25.10;46.40;;;;;;4899413;28;44743;-66
2022/09/13 15:39:43;;;;;;;;;;;25.00;46.40;;;;;;4896721;28;44798;-67
2022/09/13 15:42:08;;;;;;;;;;;25.00;46.40;;;;;;4898142;28;46555;-63
2022/09/13 15:44:34;;;;;;;;;;;25.00;46.40;;;;;;4898425;28;45293;-65
2022/09/13 15:47:03;;;;;;;;;;;25.00;46.40;;;;;;4895526;28;45040;-66
2022/09/13 15:49:29;;;;;;;;;;;25.00;46.50;;;;;;4881671;28;45397;-65
2022/09/13 15:51:56;;;;;;;;;;;25.00;46.40;;;;;;4894339;28;45256;-66
2022/09/13 15:54:21;;;;;;;;;;;25.00;46.50;;;;;;4898308;28;45508;-67
2022/09/13 15:56:48;;;;;;;;;;;25.00;46.50;;;;;;4895182;28;44954;-66
2022/09/13 15:59:13;;;;;;;;;;;25.00;46.40;;;;;;4896521;28;45278;-67
2022/09/13 16:01:39;;;;;;;;;;;25.00;46.50;;;;;;4893156;28;45246;-65
2022/09/13 16:04:06;;;;;;;;;;;24.90;46.50;;;;;;4900462;28;45036;-66
2022/09/13 16:06:32;;;;;;;;;;;25.00;46.50;;;;;;4903731;28;45716;-65
2022/09/13 16:08:59;;;;;;;;;;;24.90;46.50;;;;;;4895158;28;45369;-65
2022/09/13 16:11:24;;;;;;;;;;;24.90;46.50;;;;;;4893561;28;46166;-69
2022/09/13 16:13:50;;;;;;;;;;;24.90;46.50;;;;;;4898062;28;44694;-64
2022/09/13 16:16:15;;;;;;;;;;;24.90;46.50;;;;;;4898496;28;45262;-68
2022/09/13 16:18:41;;;;;;;;;;;24.90;46.50;;;;;;4901002;28;45674;-67
2022/09/13 16:21:06;;;;;;;;;;;24.90;46.50;;;;;;4901576;28;47125;-67
2022/09/13 16:23:32;;;;;;;;;;;24.90;46.50;;;;;;4899640;28;45508;-65
2022/09/13 16:26:00;;;;;;;;;;;24.90;46.60;;;;;;4900622;28;45707;-67
2022/09/13 16:28:26;;;;;;;;;;;24.90;46.60;;;;;;4882674;28;44772;-66
2022/09/13 16:30:51;;;;;;;;;;;24.90;46.50;;;;;;4897666;28;45640;-66
2022/09/13 16:33:18;;;;;;;;;;;24.80;46.50;;;;;;4891949;28;45722;-64
2022/09/13 16:35:44;;;;;;;;;;;24.90;46.60;;;;;;4902602;28;45345;-65
2022/09/13 16:38:09;;;;;;;;;;;24.90;46.60;;;;;;4900104;28;45588;-64
2022/09/13 16:40:37;;;;;;;;;;;24.90;46.60;;;;;;4899591;28;45602;-65
2022/09/13 16:43:02;;;;;;;;;;;24.90;46.60;;;;;;4881045;28;45404;-62
2022/09/13 16:45:28;;;;;;;;;;;24.80;46.60;;;;;;4899426;28;45255;-65
2022/09/13 16:47:53;;;;;;;;;;;24.80;46.60;;;;;;4899819;28;45362;-62
2022/09/13 16:50:19;;;;;;;;;;;24.80;46.60;;;;;;4899369;28;45202;-64
2022/09/13 16:52:45;;;;;;;;;;;24.80;46.60;;;;;;4896638;28;45211;-66
2022/09/13 16:55:11;;;;;;;;;;;24.80;46.60;;;;;;4884426;28;45987;-65
2022/09/13 16:57:36;;;;;;;;;;;24.80;46.60;;;;;;4898075;28;45711;-64
2022/09/13 17:00:06;;;;;;;;;;;24.80;46.60;;;;;;4899315;28;45264;-69
2022/09/13 17:02:32;;;;;;;;;;;24.80;46.70;;;;;;4894603;28;45171;-66
2022/09/13 17:04:58;;;;;;;;;;;24.80;46.60;;;;;;4898500;28;45730;-67
2022/09/13 17:07:23;;;;;;;;;;;24.80;46.60;;;;;;4897250;28;45635;-63
2022/09/13 17:09:49;;;;;;;;;;;24.80;46.60;;;;;;4900499;28;46041;-67
2022/09/13 17:12:14;;;;;;;;;;;24.80;46.70;;;;;;4898979;28;45306;-63
2022/09/13 17:14:46;;;;;;;;;;;24.80;46.70;;;;;;4898881;28;44676;-68
2022/09/13 17:17:12;;;;;;;;;;;24.70;46.60;;;;;;4880921;28;45311;-65
2022/09/13 17:19:37;;;;;;;;;;;24.80;46.70;;;;;;4898339;28;46002;-64
2022/09/13 17:22:04;;;;;;;;;;;24.80;46.60;;;;;;4900376;28;45831;-65
2022/09/13 17:24:30;;;;;;;;;;;24.80;46.70;;;;;;4881366;28;45099;-64
2022/09/13 17:26:56;;;;;;;;;;;24.70;46.60;;;;;;4900409;28;44848;-65
2022/09/13 17:29:23;;;;;;;;;;;24.70;46.60;;;;;;4896518;28;46550;-65
2022/09/13 17:31:48;;;;;;;;;;;24.70;46.70;;;;;;4894025;28;45226;-66